sensor_id;sensor_type;location;lat;lon;timestamp;temperature;humidity
14723;DHT22;7452;55.594;12.986;2023-02-18T00:02:11;6.20;99.90
14723;DHT22;7452;55.594;12.986;2023-02-18T00:04:48;6.10;99.90
14723;DHT22;7452;55.594;12.986;2023-02-18T00:07:42;6.20;99.90
14723;DHT22;7452;55.594;12.986;2023-02-18T00:10:12;6.20;99.90
14723;DHT22;7452;55.594;12.986;2023-02-18T00:12:42;6.10;99.90
14723;DHT22;7452;55.594;12.986;2023-02-18T00:15:16;6.10;99.90
14723;DHT22;7452;55.594;12.986;2023-02-18T00:17:43;6.00;99.90
14723;DHT22;7452;55.594;12.986;2023-02-18T00:20:11;6.10;99.90
14723;DHT22;7452;55.594;12.986;2023-02-18T00:22:40;6.00;99.90
14723;DHT22;7452;55.594;12.986;2023-02-18T00:25:07;6.00;99.90
14723;DHT22;7452;55.594;12.986;2023-02-18T00:27:35;6.00;99.90
14723;DHT22;7452;55.594;12.986;2023-02-18T00:30:05;6.10;99.90
14723;DHT22;7452;55.594;12.986;2023-02-18T00:32:33;6.10;99.90
14723;DHT22;7452;55.594;12.986;2023-02-18T00:35:04;6.00;99.90
14723;DHT22;7452;55.594;12.986;2023-02-18T00:37:34;6.00;99.90
14723;DHT22;7452;55.594;12.986;2023-02-18T00:40:03;5.90;99.90
14723;DHT22;7452;55.594;12.986;2023-02-18T00:42:31;5.90;99.90
14723;DHT22;7452;55.594;12.986;2023-02-18T00:45:01;5.90;99.90
14723;DHT22;7452;55.594;12.986;2023-02-18T00:47:28;6.00;99.90
14723;DHT22;7452;55.594;12.986;2023-02-18T00:49:57;5.80;99.90
14723;DHT22;7452;55.594;12.986;2023-02-18T00:52:27;5.70;99.90
14723;DHT22;7452;55.594;12.986;2023-02-18T00:54:59;5.80;99.90
14723;DHT22;7452;55.594;12.986;2023-02-18T00:57:30;5.70;99.90
14723;DHT22;7452;55.594;12.986;2023-02-18T01:00:01;5.80;99.90
14723;DHT22;7452;55.594;12.986;2023-02-18T01:02:29;5.70;99.90
14723;DHT22;7452;55.594;12.986;2023-02-18T01:04:56;5.70;99.90
14723;DHT22;7452;55.594;12.986;2023-02-18T01:07:25;5.60;99.90
14723;DHT22;7452;55.594;12.986;2023-02-18T01:09:53;5.60;99.90
14723;DHT22;7452;55.594;12.986;2023-02-18T01:12:21;5.70;99.90
14723;DHT22;7452;55.594;12.986;2023-02-18T01:14:51;5.60;99.90
14723;DHT22;7452;55.594;12.986;2023-02-18T01:17:19;5.60;99.90
14723;DHT22;7452;55.594;12.986;2023-02-18T01:19:47;5.60;99.90
14723;DHT22;7452;55.594;12.986;2023-02-18T01:22:16;5.60;99.90
14723;DHT22;7452;55.594;12.986;2023-02-18T01:24:43;5.60;99.90
14723;DHT22;7452;55.594;12.986;2023-02-18T01:27:11;5.50;99.90
14723;DHT22;7452;55.594;12.986;2023-02-18T01:29:38;5.50;99.90
14723;DHT22;7452;55.594;12.986;2023-02-18T01:32:07;5.50;99.90
14723;DHT22;7452;55.594;12.986;2023-02-18T01:34:35;5.50;99.90
14723;DHT22;7452;55.594;12.986;2023-02-18T01:37:05;5.40;99.90
14723;DHT22;7452;55.594;12.986;2023-02-18T01:39:32;5.50;99.90
14723;DHT22;7452;55.594;12.986;2023-02-18T01:42:01;5.40;99.90
14723;DHT22;7452;55.594;12.986;2023-02-18T01:44:33;5.50;99.90
14723;DHT22;7452;55.594;12.986;2023-02-18T01:47:02;5.50;99.90
14723;DHT22;7452;55.594;12.986;2023-02-18T01:49:36;5.50;99.90
14723;DHT22;7452;55.594;12.986;2023-02-18T01:52:07;5.50;99.90
14723;DHT22;7452;55.594;12.986;2023-02-18T01:54:38;5.50;99.90
14723;DHT22;7452;55.594;12.986;2023-02-18T01:57:11;5.50;99.90
14723;DHT22;7452;55.594;12.986;2023-02-18T01:59:41;5.50;99.90
14723;DHT22;7452;55.594;12.986;2023-02-18T02:02:13;5.50;99.90
14723;DHT22;7452;55.594;12.986;2023-02-18T02:04:42;5.40;99.90
14723;DHT22;7452;55.594;12.986;2023-02-18T02:07:10;5.40;99.90
14723;DHT22;7452;55.594;12.986;2023-02-18T02:09:39;5.50;99.90
14723;DHT22;7452;55.594;12.986;2023-02-18T02:12:20;5.40;99.90
14723;DHT22;7452;55.594;12.986;2023-02-18T02:15:07;5.30;99.90
14723;DHT22;7452;55.594;12.986;2023-02-18T02:17:40;5.30;99.90
14723;DHT22;7452;55.594;12.986;2023-02-18T02:23:52;5.30;99.90
14723;DHT22;7452;55.594;12.986;2023-02-18T02:29:48;5.20;99.90
14723;DHT22;7452;55.594;12.986;2023-02-18T02:35:22;5.20;99.90
14723;DHT22;7452;55.594;12.986;2023-02-18T02:37:54;5.30;99.90
14723;DHT22;7452;55.594;12.986;2023-02-18T02:40:32;5.30;99.90
14723;DHT22;7452;55.594;12.986;2023-02-18T02:43:08;5.30;99.90
14723;DHT22;7452;55.594;12.986;2023-02-18T02:45:44;5.30;99.90
14723;DHT22;7452;55.594;12.986;2023-02-18T02:48:22;5.30;99.90
14723;DHT22;7452;55.594;12.986;2023-02-18T02:51:00;5.30;99.90
14723;DHT22;7452;55.594;12.986;2023-02-18T02:53:33;5.20;99.90
14723;DHT22;7452;55.594;12.986;2023-02-18T02:56:01;5.30;99.90
14723;DHT22;7452;55.594;12.986;2023-02-18T02:58:28;5.30;99.90
14723;DHT22;7452;55.594;12.986;2023-02-18T03:01:17;5.20;99.90
14723;DHT22;7452;55.594;12.986;2023-02-18T03:04:11;5.20;99.90
14723;DHT22;7452;55.594;12.986;2023-02-18T03:07:01;5.20;99.90
14723;DHT22;7452;55.594;12.986;2023-02-18T03:09:40;5.20;99.90
14723;DHT22;7452;55.594;12.986;2023-02-18T03:12:13;5.20;99.90
14723;DHT22;7452;55.594;12.986;2023-02-18T03:14:48;5.10;99.90
14723;DHT22;7452;55.594;12.986;2023-02-18T03:17:23;5.10;99.90
14723;DHT22;7452;55.594;12.986;2023-02-18T03:19:54;5.10;99.90
14723;DHT22;7452;55.594;12.986;2023-02-18T03:22:28;5.10;99.90
14723;DHT22;7452;55.594;12.986;2023-02-18T03:24:57;5.10;99.90
14723;DHT22;7452;55.594;12.986;2023-02-18T03:27:29;5.10;99.90
14723;DHT22;7452;55.594;12.986;2023-02-18T03:30:00;5.10;99.90
14723;DHT22;7452;55.594;12.986;2023-02-18T03:32:28;5.10;99.90
14723;DHT22;7452;55.594;12.986;2023-02-18T03:35:01;5.10;99.90
14723;DHT22;7452;55.594;12.986;2023-02-18T03:37:31;5.10;99.90
14723;DHT22;7452;55.594;12.986;2023-02-18T03:40:02;5.10;99.90
14723;DHT22;7452;55.594;12.986;2023-02-18T03:42:30;5.10;99.90
14723;DHT22;7452;55.594;12.986;2023-02-18T03:45:00;5.10;99.90
14723;DHT22;7452;55.594;12.986;2023-02-18T03:47:28;5.10;99.90
14723;DHT22;7452;55.594;12.986;2023-02-18T03:49:58;5.00;99.90
14723;DHT22;7452;55.594;12.986;2023-02-18T03:52:28;5.00;99.90
14723;DHT22;7452;55.594;12.986;2023-02-18T03:54:56;5.00;99.90
14723;DHT22;7452;55.594;12.986;2023-02-18T03:57:26;5.10;99.90
14723;DHT22;7452;55.594;12.986;2023-02-18T03:59:53;5.10;99.90
14723;DHT22;7452;55.594;12.986;2023-02-18T04:02:24;5.10;99.90
14723;DHT22;7452;55.594;12.986;2023-02-18T04:04:51;5.10;99.90
14723;DHT22;7452;55.594;12.986;2023-02-18T04:07:19;5.00;99.90
14723;DHT22;7452;55.594;12.986;2023-02-18T04:09:46;5.00;99.90
14723;DHT22;7452;55.594;12.986;2023-02-18T04:12:15;5.00;99.90
14723;DHT22;7452;55.594;12.986;2023-02-18T04:14:43;5.10;99.90
14723;DHT22;7452;55.594;12.986;2023-02-18T04:17:11;5.10;99.90
14723;DHT22;7452;55.594;12.986;2023-02-18T04:19:38;5.00;99.90
14723;DHT22;7452;55.594;12.986;2023-02-18T04:22:05;5.00;99.90
14723;DHT22;7452;55.594;12.986;2023-02-18T04:24:33;5.00;99.90
14723;DHT22;7452;55.594;12.986;2023-02-18T04:27:01;5.00;99.90
14723;DHT22;7452;55.594;12.986;2023-02-18T04:29:31;4.90;99.90
14723;DHT22;7452;55.594;12.986;2023-02-18T04:32:01;4.90;99.90
14723;DHT22;7452;55.594;12.986;2023-02-18T04:34:43;4.90;99.90
14723;DHT22;7452;55.594;12.986;2023-02-18T04:37:11;4.90;99.90
14723;DHT22;7452;55.594;12.986;2023-02-18T04:39:38;4.90;99.90
14723;DHT22;7452;55.594;12.986;2023-02-18T04:42:06;4.90;99.90
14723;DHT22;7452;55.594;12.986;2023-02-18T04:44:37;4.90;99.90
14723;DHT22;7452;55.594;12.986;2023-02-18T04:47:06;4.90;99.90
14723;DHT22;7452;55.594;12.986;2023-02-18T04:49:36;4.90;99.90
14723;DHT22;7452;55.594;12.986;2023-02-18T04:52:04;4.90;99.90
14723;DHT22;7452;55.594;12.986;2023-02-18T04:54:33;4.80;99.90
14723;DHT22;7452;55.594;12.986;2023-02-18T04:57:02;4.80;99.90
14723;DHT22;7452;55.594;12.986;2023-02-18T04:59:31;4.80;99.90
14723;DHT22;7452;55.594;12.986;2023-02-18T05:02:02;4.80;99.90
14723;DHT22;7452;55.594;12.986;2023-02-18T05:04:32;4.80;99.90
14723;DHT22;7452;55.594;12.986;2023-02-18T05:07:02;4.80;99.90
14723;DHT22;7452;55.594;12.986;2023-02-18T05:09:37;4.90;99.90
14723;DHT22;7452;55.594;12.986;2023-02-18T05:12:05;4.80;99.90
14723;DHT22;7452;55.594;12.986;2023-02-18T05:14:40;4.80;99.90
14723;DHT22;7452;55.594;12.986;2023-02-18T05:17:10;4.80;99.90
14723;DHT22;7452;55.594;12.986;2023-02-18T05:19:37;4.80;99.90
14723;DHT22;7452;55.594;12.986;2023-02-18T05:22:04;4.80;99.90
14723;DHT22;7452;55.594;12.986;2023-02-18T05:24:32;4.80;99.90
14723;DHT22;7452;55.594;12.986;2023-02-18T05:27:02;4.80;99.90
14723;DHT22;7452;55.594;12.986;2023-02-18T05:29:31;4.80;99.90
14723;DHT22;7452;55.594;12.986;2023-02-18T05:31:59;4.80;99.90
14723;DHT22;7452;55.594;12.986;2023-02-18T05:34:29;4.90;99.90
14723;DHT22;7452;55.594;12.986;2023-02-18T05:36:57;4.90;99.90
14723;DHT22;7452;55.594;12.986;2023-02-18T05:39:25;4.90;99.90
14723;DHT22;7452;55.594;12.986;2023-02-18T05:41:52;4.90;99.90
14723;DHT22;7452;55.594;12.986;2023-02-18T05:44:25;4.80;99.90
14723;DHT22;7452;55.594;12.986;2023-02-18T05:47:00;4.80;99.90
14723;DHT22;7452;55.594;12.986;2023-02-18T05:49:30;4.90;99.90
14723;DHT22;7452;55.594;12.986;2023-02-18T05:52:03;4.90;99.90
14723;DHT22;7452;55.594;12.986;2023-02-18T05:54:33;4.90;99.90
14723;DHT22;7452;55.594;12.986;2023-02-18T05:57:02;4.80;99.90
14723;DHT22;7452;55.594;12.986;2023-02-18T05:59:33;4.80;99.90
14723;DHT22;7452;55.594;12.986;2023-02-18T06:02:02;4.80;99.90
14723;DHT22;7452;55.594;12.986;2023-02-18T06:04:31;4.90;99.90
14723;DHT22;7452;55.594;12.986;2023-02-18T06:06:58;4.90;99.90
14723;DHT22;7452;55.594;12.986;2023-02-18T06:09:36;4.90;99.90
14723;DHT22;7452;55.594;12.986;2023-02-18T06:12:03;4.90;99.90
14723;DHT22;7452;55.594;12.986;2023-02-18T06:14:32;4.90;99.90
14723;DHT22;7452;55.594;12.986;2023-02-18T06:17:00;4.90;99.90
14723;DHT22;7452;55.594;12.986;2023-02-18T06:19:27;4.90;99.90
14723;DHT22;7452;55.594;12.986;2023-02-18T06:21:59;4.80;99.90
14723;DHT22;7452;55.594;12.986;2023-02-18T06:24:29;4.80;99.90
14723;DHT22;7452;55.594;12.986;2023-02-18T06:26:56;4.80;99.90
14723;DHT22;7452;55.594;12.986;2023-02-18T06:29:25;4.80;99.90
14723;DHT22;7452;55.594;12.986;2023-02-18T06:31:54;4.90;99.90
14723;DHT22;7452;55.594;12.986;2023-02-18T06:34:22;4.90;99.90
14723;DHT22;7452;55.594;12.986;2023-02-18T06:36:49;4.90;99.90
14723;DHT22;7452;55.594;12.986;2023-02-18T06:39:19;4.80;99.90
14723;DHT22;7452;55.594;12.986;2023-02-18T06:41:49;4.80;99.90
14723;DHT22;7452;55.594;12.986;2023-02-18T06:44:18;4.90;99.90
14723;DHT22;7452;55.594;12.986;2023-02-18T06:46:46;4.80;99.90
14723;DHT22;7452;55.594;12.986;2023-02-18T06:49:14;4.80;99.90
14723;DHT22;7452;55.594;12.986;2023-02-18T06:51:43;4.90;99.90
14723;DHT22;7452;55.594;12.986;2023-02-18T06:54:12;4.80;99.90
14723;DHT22;7452;55.594;12.986;2023-02-18T06:56:45;4.80;99.90
14723;DHT22;7452;55.594;12.986;2023-02-18T06:59:13;4.70;99.90
14723;DHT22;7452;55.594;12.986;2023-02-18T07:01:42;4.80;99.90
14723;DHT22;7452;55.594;12.986;2023-02-18T07:04:10;4.80;99.90
14723;DHT22;7452;55.594;12.986;2023-02-18T07:06:38;4.70;99.90
14723;DHT22;7452;55.594;12.986;2023-02-18T07:09:06;4.70;99.90
14723;DHT22;7452;55.594;12.986;2023-02-18T07:11:37;4.70;99.90
14723;DHT22;7452;55.594;12.986;2023-02-18T07:14:11;4.80;99.90
14723;DHT22;7452;55.594;12.986;2023-02-18T07:16:38;4.80;99.90
14723;DHT22;7452;55.594;12.986;2023-02-18T07:19:05;4.90;99.90
14723;DHT22;7452;55.594;12.986;2023-02-18T07:21:33;4.90;99.90
14723;DHT22;7452;55.594;12.986;2023-02-18T07:24:01;4.90;99.90
14723;DHT22;7452;55.594;12.986;2023-02-18T07:26:30;4.90;99.90
14723;DHT22;7452;55.594;12.986;2023-02-18T07:28:57;4.90;99.90
14723;DHT22;7452;55.594;12.986;2023-02-18T07:31:27;5.00;99.90
14723;DHT22;7452;55.594;12.986;2023-02-18T07:33:56;5.00;99.90
14723;DHT22;7452;55.594;12.986;2023-02-18T07:36:24;5.00;99.90
14723;DHT22;7452;55.594;12.986;2023-02-18T07:38:51;5.00;99.90
14723;DHT22;7452;55.594;12.986;2023-02-18T07:41:21;5.00;99.90
14723;DHT22;7452;55.594;12.986;2023-02-18T07:43:50;5.00;99.90
14723;DHT22;7452;55.594;12.986;2023-02-18T07:46:18;5.10;99.90
14723;DHT22;7452;55.594;12.986;2023-02-18T07:49:03;5.20;99.90
14723;DHT22;7452;55.594;12.986;2023-02-18T07:51:30;5.10;99.90
14723;DHT22;7452;55.594;12.986;2023-02-18T07:54:00;5.10;99.90
14723;DHT22;7452;55.594;12.986;2023-02-18T07:56:28;5.10;99.90
14723;DHT22;7452;55.594;12.986;2023-02-18T07:58:55;5.20;99.90
14723;DHT22;7452;55.594;12.986;2023-02-18T08:01:22;5.20;99.90
14723;DHT22;7452;55.594;12.986;2023-02-18T08:03:50;5.50;99.90
14723;DHT22;7452;55.594;12.986;2023-02-18T08:06:24;5.30;99.90
14723;DHT22;7452;55.594;12.986;2023-02-18T08:08:52;5.40;99.90
14723;DHT22;7452;55.594;12.986;2023-02-18T08:11:20;5.40;99.90
14723;DHT22;7452;55.594;12.986;2023-02-18T08:13:47;5.40;99.90
14723;DHT22;7452;55.594;12.986;2023-02-18T08:16:14;5.50;99.90
14723;DHT22;7452;55.594;12.986;2023-02-18T08:18:42;5.60;99.90
14723;DHT22;7452;55.594;12.986;2023-02-18T08:21:09;5.70;99.90
14723;DHT22;7452;55.594;12.986;2023-02-18T08:23:38;5.80;99.90
14723;DHT22;7452;55.594;12.986;2023-02-18T08:26:09;6.00;99.90
14723;DHT22;7452;55.594;12.986;2023-02-18T08:28:37;6.10;99.90
14723;DHT22;7452;55.594;12.986;2023-02-18T08:31:06;6.20;99.90
14723;DHT22;7452;55.594;12.986;2023-02-18T08:33:33;6.20;99.90
14723;DHT22;7452;55.594;12.986;2023-02-18T08:36:00;6.40;99.90
14723;DHT22;7452;55.594;12.986;2023-02-18T08:38:34;6.40;99.90
14723;DHT22;7452;55.594;12.986;2023-02-18T08:41:05;6.50;99.90
14723;DHT22;7452;55.594;12.986;2023-02-18T08:43:34;6.60;99.90
14723;DHT22;7452;55.594;12.986;2023-02-18T08:46:02;6.70;99.90
14723;DHT22;7452;55.594;12.986;2023-02-18T08:48:34;6.60;99.90
14723;DHT22;7452;55.594;12.986;2023-02-18T08:51:11;6.70;99.90
14723;DHT22;7452;55.594;12.986;2023-02-18T08:53:39;6.90;99.90
14723;DHT22;7452;55.594;12.986;2023-02-18T08:56:09;7.00;99.90
14723;DHT22;7452;55.594;12.986;2023-02-18T08:58:39;6.90;99.90
14723;DHT22;7452;55.594;12.986;2023-02-18T09:01:08;6.80;99.90
14723;DHT22;7452;55.594;12.986;2023-02-18T09:03:35;6.70;99.90
14723;DHT22;7452;55.594;12.986;2023-02-18T09:06:03;6.70;99.90
14723;DHT22;7452;55.594;12.986;2023-02-18T09:08:33;6.60;99.90
14723;DHT22;7452;55.594;12.986;2023-02-18T09:11:01;6.60;99.90
14723;DHT22;7452;55.594;12.986;2023-02-18T09:13:32;6.60;99.90
14723;DHT22;7452;55.594;12.986;2023-02-18T09:16:02;6.70;99.90
14723;DHT22;7452;55.594;12.986;2023-02-18T09:18:30;6.70;99.90
14723;DHT22;7452;55.594;12.986;2023-02-18T09:21:00;6.80;99.90
14723;DHT22;7452;55.594;12.986;2023-02-18T09:23:29;6.80;99.90
14723;DHT22;7452;55.594;12.986;2023-02-18T09:25:57;6.80;99.90
14723;DHT22;7452;55.594;12.986;2023-02-18T09:28:25;6.80;99.90
14723;DHT22;7452;55.594;12.986;2023-02-18T09:30:55;6.80;99.90
14723;DHT22;7452;55.594;12.986;2023-02-18T09:33:23;6.60;99.90
14723;DHT22;7452;55.594;12.986;2023-02-18T09:35:51;6.60;99.90
14723;DHT22;7452;55.594;12.986;2023-02-18T09:38:18;6.70;99.90
14723;DHT22;7452;55.594;12.986;2023-02-18T09:40:51;6.60;99.90
14723;DHT22;7452;55.594;12.986;2023-02-18T09:43:26;6.70;99.90
14723;DHT22;7452;55.594;12.986;2023-02-18T09:45:57;6.60;99.90
14723;DHT22;7452;55.594;12.986;2023-02-18T09:48:29;6.60;99.90
14723;DHT22;7452;55.594;12.986;2023-02-18T09:50:59;6.60;99.90
14723;DHT22;7452;55.594;12.986;2023-02-18T09:53:27;6.50;99.90
14723;DHT22;7452;55.594;12.986;2023-02-18T09:55:57;6.50;99.90
14723;DHT22;7452;55.594;12.986;2023-02-18T09:58:27;6.40;99.90
14723;DHT22;7452;55.594;12.986;2023-02-18T10:01:03;6.40;99.90
14723;DHT22;7452;55.594;12.986;2023-02-18T10:03:31;6.40;99.90
14723;DHT22;7452;55.594;12.986;2023-02-18T10:06:04;6.50;99.90
14723;DHT22;7452;55.594;12.986;2023-02-18T10:08:34;6.50;99.90
14723;DHT22;7452;55.594;12.986;2023-02-18T10:11:03;6.40;99.90
14723;DHT22;7452;55.594;12.986;2023-02-18T10:13:32;6.30;99.90
14723;DHT22;7452;55.594;12.986;2023-02-18T10:16:03;6.30;99.90
14723;DHT22;7452;55.594;12.986;2023-02-18T10:18:32;6.30;99.90
14723;DHT22;7452;55.594;12.986;2023-02-18T10:21:05;6.40;99.90
14723;DHT22;7452;55.594;12.986;2023-02-18T10:23:36;6.50;99.90
14723;DHT22;7452;55.594;12.986;2023-02-18T10:26:07;6.60;99.90
14723;DHT22;7452;55.594;12.986;2023-02-18T10:28:36;6.70;99.90
14723;DHT22;7452;55.594;12.986;2023-02-18T10:31:08;6.80;99.90
14723;DHT22;7452;55.594;12.986;2023-02-18T10:33:41;6.80;99.90
14723;DHT22;7452;55.594;12.986;2023-02-18T10:36:22;6.80;99.90
14723;DHT22;7452;55.594;12.986;2023-02-18T10:39:10;6.90;99.90
14723;DHT22;7452;55.594;12.986;2023-02-18T10:41:47;7.00;99.90
14723;DHT22;7452;55.594;12.986;2023-02-18T10:44:21;7.30;99.90
14723;DHT22;7452;55.594;12.986;2023-02-18T10:47:02;7.60;99.90
14723;DHT22;7452;55.594;12.986;2023-02-18T10:52:36;8.30;99.90
14723;DHT22;7452;55.594;12.986;2023-02-18T10:55:06;8.90;99.90
14723;DHT22;7452;55.594;12.986;2023-02-18T10:57:36;9.20;99.90
14723;DHT22;7452;55.594;12.986;2023-02-18T11:00:16;9.50;99.90
14723;DHT22;7452;55.594;12.986;2023-02-18T11:02:47;9.80;99.90
14723;DHT22;7452;55.594;12.986;2023-02-18T11:05:27;9.90;99.90
14723;DHT22;7452;55.594;12.986;2023-02-18T11:07:56;9.70;99.90
14723;DHT22;7452;55.594;12.986;2023-02-18T11:10:30;9.40;99.90
14723;DHT22;7452;55.594;12.986;2023-02-18T11:13:00;9.10;99.90
14723;DHT22;7452;55.594;12.986;2023-02-18T11:15:28;8.80;99.90
14723;DHT22;7452;55.594;12.986;2023-02-18T11:18:12;8.80;99.90
14723;DHT22;7452;55.594;12.986;2023-02-18T11:20:40;8.50;99.90
14723;DHT22;7452;55.594;12.986;2023-02-18T11:23:16;8.40;99.90
14723;DHT22;7452;55.594;12.986;2023-02-18T11:25:57;8.20;99.90
14723;DHT22;7452;55.594;12.986;2023-02-18T11:31:17;8.10;99.90
14723;DHT22;7452;55.594;12.986;2023-02-18T11:33:50;7.90;99.90
14723;DHT22;7452;55.594;12.986;2023-02-18T11:36:24;7.90;99.90
14723;DHT22;7452;55.594;12.986;2023-02-18T11:38:58;8.00;99.90
14723;DHT22;7452;55.594;12.986;2023-02-18T11:41:33;7.90;99.90
14723;DHT22;7452;55.594;12.986;2023-02-18T11:44:02;7.90;99.90
14723;DHT22;7452;55.594;12.986;2023-02-18T11:46:30;7.90;99.90
14723;DHT22;7452;55.594;12.986;2023-02-18T11:49:19;7.80;99.90
14723;DHT22;7452;55.594;12.986;2023-02-18T11:51:48;8.00;99.90
14723;DHT22;7452;55.594;12.986;2023-02-18T11:54:24;8.40;99.90
14723;DHT22;7452;55.594;12.986;2023-02-18T11:56:56;8.70;99.90
14723;DHT22;7452;55.594;12.986;2023-02-18T11:59:24;8.50;99.90
14723;DHT22;7452;55.594;12.986;2023-02-18T12:01:55;8.30;99.90
14723;DHT22;7452;55.594;12.986;2023-02-18T12:04:30;8.10;99.90
14723;DHT22;7452;55.594;12.986;2023-02-18T12:07:16;8.00;99.90
14723;DHT22;7452;55.594;12.986;2023-02-18T12:09:47;8.10;99.90
14723;DHT22;7452;55.594;12.986;2023-02-18T12:12:18;8.10;99.90
14723;DHT22;7452;55.594;12.986;2023-02-18T12:14:48;8.00;99.90
14723;DHT22;7452;55.594;12.986;2023-02-18T12:17:29;8.10;99.90
14723;DHT22;7452;55.594;12.986;2023-02-18T12:20:16;8.20;99.90
14723;DHT22;7452;55.594;12.986;2023-02-18T12:22:55;8.60;99.90
14723;DHT22;7452;55.594;12.986;2023-02-18T12:25:34;8.80;99.90
14723;DHT22;7452;55.594;12.986;2023-02-18T12:28:16;8.90;99.90
14723;DHT22;7452;55.594;12.986;2023-02-18T12:34:23;9.10;99.90
14723;DHT22;7452;55.594;12.986;2023-02-18T12:37:06;9.40;99.90
14723;DHT22;7452;55.594;12.986;2023-02-18T12:39:55;9.40;99.90
14723;DHT22;7452;55.594;12.986;2023-02-18T12:42:35;9.20;99.90
14723;DHT22;7452;55.594;12.986;2023-02-18T12:48:37;9.10;99.90
14723;DHT22;7452;55.594;12.986;2023-02-18T12:51:17;9.00;99.90
14723;DHT22;7452;55.594;12.986;2023-02-18T12:54:18;9.20;99.90
14723;DHT22;7452;55.594;12.986;2023-02-18T12:59:55;10.40;99.90
14723;DHT22;7452;55.594;12.986;2023-02-18T13:02:57;11.70;99.90
14723;DHT22;7452;55.594;12.986;2023-02-18T13:05:34;13.20;99.90
14723;DHT22;7452;55.594;12.986;2023-02-18T13:08:28;14.40;99.90
14723;DHT22;7452;55.594;12.986;2023-02-18T13:11:18;14.50;99.90
14723;DHT22;7452;55.594;12.986;2023-02-18T13:13:54;14.80;99.90
14723;DHT22;7452;55.594;12.986;2023-02-18T13:16:26;15.20;99.90
14723;DHT22;7452;55.594;12.986;2023-02-18T13:18:59;15.10;99.90
14723;DHT22;7452;55.594;12.986;2023-02-18T13:21:28;14.70;99.90
14723;DHT22;7452;55.594;12.986;2023-02-18T13:23:58;14.20;99.90
14723;DHT22;7452;55.594;12.986;2023-02-18T13:26:28;13.70;99.90
14723;DHT22;7452;55.594;12.986;2023-02-18T13:29:07;13.40;99.90
14723;DHT22;7452;55.594;12.986;2023-02-18T13:31:41;13.00;99.90
14723;DHT22;7452;55.594;12.986;2023-02-18T13:34:14;12.60;99.90
14723;DHT22;7452;55.594;12.986;2023-02-18T13:36:57;12.30;99.90
14723;DHT22;7452;55.594;12.986;2023-02-18T13:39:35;11.90;99.90
14723;DHT22;7452;55.594;12.986;2023-02-18T13:42:25;11.50;99.90
14723;DHT22;7452;55.594;12.986;2023-02-18T13:45:27;11.20;99.90
14723;DHT22;7452;55.594;12.986;2023-02-18T13:47:54;10.70;99.90
14723;DHT22;7452;55.594;12.986;2023-02-18T13:50:28;10.50;99.90
14723;DHT22;7452;55.594;12.986;2023-02-18T13:53:20;10.50;99.90
14723;DHT22;7452;55.594;12.986;2023-02-18T13:56:05;10.30;99.90
14723;DHT22;7452;55.594;12.986;2023-02-18T13:58:46;11.40;99.90
14723;DHT22;7452;55.594;12.986;2023-02-18T14:01:21;12.90;99.90
14723;DHT22;7452;55.594;12.986;2023-02-18T14:03:59;13.80;99.90
14723;DHT22;7452;55.594;12.986;2023-02-18T14:06:31;14.60;99.90
14723;DHT22;7452;55.594;12.986;2023-02-18T14:11:47;15.30;99.90
14723;DHT22;7452;55.594;12.986;2023-02-18T14:14:44;14.90;99.90
14723;DHT22;7452;55.594;12.986;2023-02-18T14:17:28;14.00;99.90
14723;DHT22;7452;55.594;12.986;2023-02-18T14:23:39;13.90;99.90
14723;DHT22;7452;55.594;12.986;2023-02-18T14:26:08;13.40;99.90
14723;DHT22;7452;55.594;12.986;2023-02-18T14:28:39;13.00;99.90
14723;DHT22;7452;55.594;12.986;2023-02-18T14:31:26;12.90;99.90
14723;DHT22;7452;55.594;12.986;2023-02-18T14:36:54;12.20;99.90
14723;DHT22;7452;55.594;12.986;2023-02-18T14:39:36;11.70;99.90
14723;DHT22;7452;55.594;12.986;2023-02-18T14:42:20;11.50;99.90
14723;DHT22;7452;55.594;12.986;2023-02-18T14:45:04;11.10;99.90
14723;DHT22;7452;55.594;12.986;2023-02-18T14:47:44;11.10;99.90
14723;DHT22;7452;55.594;12.986;2023-02-18T14:50:19;11.10;99.90
14723;DHT22;7452;55.594;12.986;2023-02-18T14:52:49;11.30;99.90
14723;DHT22;7452;55.594;12.986;2023-02-18T14:55:22;11.30;99.90
14723;DHT22;7452;55.594;12.986;2023-02-18T14:57:53;11.40;99.90
14723;DHT22;7452;55.594;12.986;2023-02-18T15:00:23;11.30;99.90
14723;DHT22;7452;55.594;12.986;2023-02-18T15:02:53;11.20;99.90
14723;DHT22;7452;55.594;12.986;2023-02-18T15:05:23;11.10;99.90
14723;DHT22;7452;55.594;12.986;2023-02-18T15:07:57;10.70;99.90
14723;DHT22;7452;55.594;12.986;2023-02-18T15:10:34;10.50;99.90
14723;DHT22;7452;55.594;12.986;2023-02-18T15:13:03;10.10;99.90
14723;DHT22;7452;55.594;12.986;2023-02-18T15:15:34;9.80;99.90
14723;DHT22;7452;55.594;12.986;2023-02-18T15:18:04;9.50;99.90
14723;DHT22;7452;55.594;12.986;2023-02-18T15:20:39;9.00;99.90
14723;DHT22;7452;55.594;12.986;2023-02-18T15:23:08;8.70;99.90
14723;DHT22;7452;55.594;12.986;2023-02-18T15:25:39;8.50;99.90
14723;DHT22;7452;55.594;12.986;2023-02-18T15:28:20;8.40;99.90
14723;DHT22;7452;55.594;12.986;2023-02-18T15:30:49;8.30;99.90
14723;DHT22;7452;55.594;12.986;2023-02-18T15:33:22;8.20;99.90
14723;DHT22;7452;55.594;12.986;2023-02-18T15:35:49;8.00;99.90
14723;DHT22;7452;55.594;12.986;2023-02-18T15:38:18;7.90;99.90
14723;DHT22;7452;55.594;12.986;2023-02-18T15:40:49;7.80;99.90
14723;DHT22;7452;55.594;12.986;2023-02-18T15:43:20;7.60;99.90
14723;DHT22;7452;55.594;12.986;2023-02-18T15:45:49;7.50;99.90
14723;DHT22;7452;55.594;12.986;2023-02-18T15:48:25;7.30;99.90
14723;DHT22;7452;55.594;12.986;2023-02-18T15:50:55;7.10;99.90
14723;DHT22;7452;55.594;12.986;2023-02-18T15:53:22;6.90;99.90
14723;DHT22;7452;55.594;12.986;2023-02-18T15:55:52;6.70;99.90
14723;DHT22;7452;55.594;12.986;2023-02-18T15:58:23;6.70;99.90
14723;DHT22;7452;55.594;12.986;2023-02-18T16:00:56;6.60;99.90
14723;DHT22;7452;55.594;12.986;2023-02-18T16:03:27;6.50;99.90
14723;DHT22;7452;55.594;12.986;2023-02-18T16:06:09;6.40;99.90
14723;DHT22;7452;55.594;12.986;2023-02-18T16:08:37;6.40;99.90
14723;DHT22;7452;55.594;12.986;2023-02-18T16:11:07;6.30;99.90
14723;DHT22;7452;55.594;12.986;2023-02-18T16:13:36;6.30;99.90
14723;DHT22;7452;55.594;12.986;2023-02-18T16:16:21;6.30;99.90
14723;DHT22;7452;55.594;12.986;2023-02-18T16:18:54;6.20;99.90
14723;DHT22;7452;55.594;12.986;2023-02-18T16:21:32;6.20;99.90
14723;DHT22;7452;55.594;12.986;2023-02-18T16:24:22;6.10;99.90
14723;DHT22;7452;55.594;12.986;2023-02-18T16:26:53;6.10;99.90
14723;DHT22;7452;55.594;12.986;2023-02-18T16:29:24;6.00;99.90
14723;DHT22;7452;55.594;12.986;2023-02-18T16:31:51;6.00;99.90
14723;DHT22;7452;55.594;12.986;2023-02-18T16:34:28;5.90;99.90
14723;DHT22;7452;55.594;12.986;2023-02-18T16:36:55;5.90;99.90
14723;DHT22;7452;55.594;12.986;2023-02-18T16:39:40;5.80;99.90
14723;DHT22;7452;55.594;12.986;2023-02-18T16:42:10;5.70;99.90
14723;DHT22;7452;55.594;12.986;2023-02-18T16:44:38;5.70;99.90
14723;DHT22;7452;55.594;12.986;2023-02-18T16:47:06;5.60;99.90
14723;DHT22;7452;55.594;12.986;2023-02-18T16:49:38;5.60;99.90
14723;DHT22;7452;55.594;12.986;2023-02-18T16:52:07;5.50;99.90